createdAt,value
2019-05-07T00:02:34.880Z,7.70
2019-05-07T00:06:43.281Z,6.28
2019-05-07T00:10:50.237Z,5.97
2019-05-07T00:15:01.638Z,7.17
2019-05-07T00:19:07.413Z,7.22
2019-05-07T00:23:14.480Z,6.25
2019-05-07T00:27:22.418Z,6.45
2019-05-07T00:31:27.710Z,6.28
2019-05-07T00:35:38.736Z,8.43
2019-05-07T00:39:54.871Z,8.93
2019-05-07T00:44:03.220Z,6.62
2019-05-07T00:48:10.047Z,8.45
2019-05-07T00:52:16.783Z,6.87
2019-05-07T00:56:22.534Z,4.87
2019-05-07T01:00:28.208Z,7.78
2019-05-07T01:04:35.553Z,8.93
2019-05-07T01:08:43.070Z,7.22
2019-05-07T01:12:50.300Z,7.60
2019-05-07T01:16:57.655Z,5.92
2019-05-07T01:21:03.352Z,6.35
2019-05-07T01:25:12.853Z,5.80
2019-05-07T01:29:22.444Z,8.18
2019-05-07T01:33:50.101Z,10.43
2019-05-07T01:37:58.285Z,5.70
2019-05-07T01:42:05.031Z,7.00
2019-05-07T01:46:12.267Z,9.98
2019-05-07T01:50:19.603Z,6.75
2019-05-07T01:54:26.299Z,5.53
2019-05-07T01:58:34.548Z,5.45
2019-05-07T02:02:48.432Z,7.90
2019-05-07T02:07:29.251Z,6.47
2019-05-07T02:11:42.593Z,5.58
2019-05-07T02:16:00.094Z,8.03
2019-05-07T02:19:56.284Z,5.92
2019-05-07T02:24:03.357Z,7.17
2019-05-07T02:28:09.107Z,6.87
2019-05-07T02:32:14.875Z,6.12
2019-05-07T02:36:23.717Z,7.55
2019-05-07T02:40:38.253Z,8.48
2019-05-07T02:45:18.260Z,8.50
2019-05-07T02:49:55.758Z,6.80
2019-05-07T02:54:17.813Z,8.15
2019-05-07T02:58:24.156Z,8.73
2019-05-07T03:02:33.248Z,10.10
2019-05-07T03:06:39.505Z,8.70
2019-05-07T03:10:48.422Z,10.72
2019-05-07T03:14:55.661Z,5.85
2019-05-07T03:19:15.591Z,5.72
2019-05-07T03:23:24.466Z,7.53
2019-05-07T03:27:33.786Z,6.17
2019-05-07T03:32:05.999Z,8.60
2019-05-07T03:36:15.977Z,6.35
2019-05-07T03:40:18.287Z,8.85
2019-05-07T03:44:44.502Z,7.25
2019-05-07T03:48:49.487Z,9.38
2019-05-07T03:52:55.306Z,5.75
2019-05-07T03:57:10.354Z,7.90
2019-05-07T04:01:13.144Z,9.00
2019-05-07T04:05:17.957Z,6.97
2019-05-07T04:09:24.275Z,5.55
2019-05-07T04:13:39.341Z,5.42
2019-05-07T04:17:46.485Z,8.98
2019-05-07T04:21:54.251Z,11.00
2019-05-07T04:26:22.909Z,7.17
2019-05-07T04:30:28.231Z,9.33
2019-05-07T04:35:04.619Z,8.30
2019-05-07T04:39:12.940Z,6.95
2019-05-07T04:43:17.533Z,6.58
2019-05-07T04:47:36.987Z,6.58
2019-05-07T04:51:46.159Z,6.53
2019-05-07T04:55:53.587Z,10.23
2019-05-07T05:00:02.902Z,7.95
2019-05-07T05:04:24.380Z,7.85
2019-05-07T05:08:14.626Z,7.75
2019-05-07T05:12:22.467Z,7.83
2019-05-07T05:16:28.213Z,7.05
2019-05-07T05:20:42.031Z,11.73
2019-05-07T05:24:50.266Z,7.28
2019-05-07T05:28:56.916Z,10.83
2019-05-07T05:33:04.398Z,9.03
2019-05-07T05:37:11.852Z,10.28
2019-05-07T05:41:17.097Z,8.28
2019-05-07T05:45:35.533Z,8.58
2019-05-07T05:49:42.856Z,11.05
2019-05-07T05:54:02.008Z,8.45
2019-05-07T05:58:33.431Z,6.20
2019-05-07T06:02:55.028Z,6.40
2019-05-07T06:07:11.153Z,6.72
2019-05-07T06:11:32.109Z,10.87
2019-05-07T06:16:03.049Z,8.75
2019-05-07T06:20:28.676Z,8.35
2019-05-07T06:25:02.465Z,6.72
2019-05-07T06:29:08.210Z,7.30
2019-05-07T06:33:14.211Z,8.28
2019-05-07T06:37:19.845Z,8.33
2019-05-07T06:41:43.822Z,8.75
2019-05-07T06:45:52.155Z,8.13
2019-05-07T06:49:58.867Z,7.60
2019-05-07T06:54:04.550Z,9.30
2019-05-07T06:58:12.218Z,6.95
2019-05-07T07:02:32.997Z,9.83
2019-05-07T07:06:57.577Z,6.40
2019-05-07T07:11:09.970Z,7.30
2019-05-07T07:15:15.837Z,9.13
2019-05-07T07:19:23.308Z,7.05
2019-05-07T07:23:32.124Z,11.43
2019-05-07T07:27:37.271Z,9.88
2019-05-07T07:32:03.166Z,5.95
2019-05-07T07:36:08.821Z,7.58
2019-05-07T07:40:34.898Z,7.17
2019-05-07T07:44:42.570Z,9.43
2019-05-07T07:48:48.214Z,5.80
2019-05-07T07:52:54.028Z,7.07
2019-05-07T07:57:27.662Z,8.38
2019-05-07T08:01:48.516Z,6.12
2019-05-07T08:05:55.125Z,7.15
2019-05-07T08:10:02.567Z,5.92
2019-05-07T08:14:08.296Z,5.55
2019-05-07T08:18:15.566Z,7.33
2019-05-07T08:22:22.847Z,5.60
2019-05-07T08:26:32.200Z,6.55
2019-05-07T08:30:39.413Z,5.25
2019-05-07T08:34:56.294Z,7.17
2019-05-07T08:39:03.321Z,6.10
2019-05-07T08:43:12.576Z,6.28
2019-05-07T08:47:36.248Z,4.62
2019-05-07T08:51:42.618Z,6.35
2019-05-07T08:55:49.600Z,6.20
2019-05-07T09:00:00.856Z,5.25
2019-05-07T09:04:02.916Z,5.75
2019-05-07T09:08:08.905Z,6.58
2019-05-07T09:12:14.614Z,5.87
2019-05-07T09:16:23.152Z,5.87
2019-05-07T09:20:27.638Z,6.60
2019-05-07T09:24:33.572Z,5.25
2019-05-07T09:28:52.674Z,6.35
2019-05-07T09:33:03.281Z,5.10
2019-05-07T09:37:12.415Z,5.10
2019-05-07T09:41:32.759Z,4.73
2019-05-07T09:45:42.031Z,4.53
2019-05-07T09:50:03.493Z,6.20
2019-05-07T09:53:59.175Z,5.97
2019-05-07T09:58:06.330Z,3.65
2019-05-07T10:02:12.352Z,5.60
2019-05-07T10:06:18.182Z,5.53
2019-05-07T10:10:23.969Z,5.65
2019-05-07T10:14:29.772Z,7.03
2019-05-07T10:18:35.554Z,6.12
2019-05-07T10:22:42.887Z,4.33
2019-05-07T10:26:49.877Z,4.87
2019-05-07T10:30:55.765Z,7.72
2019-05-07T10:35:02.303Z,5.22
2019-05-07T10:39:08.116Z,8.85
2019-05-07T10:43:14.220Z,4.03
2019-05-07T10:47:39.099Z,8.73
2019-05-07T10:51:44.815Z,6.67
2019-05-07T10:55:50.763Z,6.00
2019-05-07T10:59:56.537Z,3.55
2019-05-07T11:04:02.340Z,4.53
2019-05-07T11:08:09.507Z,8.00
2019-05-07T11:12:15.280Z,3.85
2019-05-07T11:16:22.757Z,4.42
2019-05-07T11:20:28.388Z,5.87
2019-05-07T11:24:34.182Z,4.42
2019-05-07T11:28:39.953Z,3.65
2019-05-07T11:32:45.690Z,4.53
2019-05-07T11:37:03.932Z,6.72
2019-05-07T11:41:09.781Z,3.72
2019-05-07T11:45:22.731Z,2.95
2019-05-07T11:49:45.655Z,3.40
2019-05-07T11:54:08.831Z,3.77
2019-05-07T11:58:14.601Z,3.62
2019-05-07T12:02:22.522Z,3.40
2019-05-07T12:06:27.756Z,2.67
2019-05-07T12:10:33.495Z,3.27
2019-05-07T12:14:39.151Z,4.12
2019-05-07T12:18:45.491Z,3.35
2019-05-07T12:22:53.405Z,4.20
2019-05-07T12:26:59.082Z,3.80
2019-05-07T12:31:24.273Z,3.30
2019-05-07T12:35:30.112Z,3.17
2019-05-07T12:39:35.942Z,4.03
2019-05-07T12:43:42.374Z,5.47
2019-05-07T12:47:52.810Z,3.98
2019-05-07T12:52:03.381Z,5.30
2019-05-07T12:56:09.067Z,4.97
2019-05-07T13:00:32.713Z,3.58
2019-05-07T13:04:38.426Z,5.42
2019-05-07T13:08:45.325Z,6.83
2019-05-07T13:12:52.624Z,5.67
2019-05-07T13:16:58.274Z,4.60
2019-05-07T13:21:03.978Z,4.85
2019-05-07T13:25:09.716Z,5.62
2019-05-07T13:29:15.507Z,5.25
2019-05-07T13:33:22.789Z,6.67
2019-05-07T13:37:32.390Z,4.83
2019-05-07T13:41:56.707Z,5.33
2019-05-07T13:46:12.049Z,5.25
2019-05-07T13:50:18.097Z,4.20
2019-05-07T13:54:23.791Z,3.62
2019-05-07T13:58:29.518Z,6.08
2019-05-07T14:02:35.413Z,4.60
2019-05-07T14:06:43.003Z,5.35
2019-05-07T14:10:48.623Z,5.33
2019-05-07T14:14:55.058Z,4.35
2019-05-07T14:19:01.970Z,4.33
2019-05-07T14:23:08.046Z,3.27
2019-05-07T14:27:13.808Z,4.90
2019-05-07T14:31:19.615Z,4.90
2019-05-07T14:35:36.606Z,3.83
2019-05-07T14:39:42.592Z,3.05
2019-05-07T14:43:58.221Z,2.62
2019-05-07T14:48:04.333Z,4.17
2019-05-07T14:52:12.334Z,4.85
2019-05-07T14:56:18.175Z,3.80
2019-05-07T15:00:23.941Z,4.47
2019-05-07T15:04:29.717Z,5.03
2019-05-07T15:08:35.306Z,4.35
2019-05-07T15:12:42.631Z,2.87
2019-05-07T15:16:50.094Z,4.40
2019-05-07T15:20:57.414Z,5.50
2019-05-07T15:25:03.181Z,4.70
2019-05-07T15:29:14.392Z,2.92
2019-05-07T15:33:21.766Z,5.28
2019-05-07T15:37:27.565Z,2.70
2019-05-07T15:41:33.510Z,4.10
2019-05-07T15:45:39.158Z,3.90
2019-05-07T15:49:44.991Z,3.00
2019-05-07T15:53:53.306Z,3.17
2019-05-07T15:57:59.619Z,2.55
2019-05-07T16:02:22.539Z,2.47
2019-05-07T16:06:28.553Z,2.83
2019-05-07T16:10:34.227Z,4.58
2019-05-07T16:14:42.334Z,2.33
2019-05-07T16:19:15.759Z,4.03
2019-05-07T16:23:22.126Z,3.80
2019-05-07T16:27:29.232Z,3.00
2019-05-07T16:31:35.504Z,3.60
2019-05-07T16:35:42.548Z,2.80
2019-05-07T16:39:49.956Z,3.30
2019-05-07T16:43:55.777Z,2.35
2019-05-07T16:48:03.243Z,3.02
2019-05-07T16:52:09.128Z,3.40
2019-05-07T16:56:15.904Z,2.83
2019-05-07T17:00:27.773Z,2.90
2019-05-07T17:04:33.533Z,3.20
2019-05-07T17:08:58.546Z,3.65
2019-05-07T17:13:05.592Z,2.52
2019-05-07T17:17:12.144Z,2.87
2019-05-07T17:21:21.779Z,3.00
2019-05-07T17:25:42.648Z,2.98
2019-05-07T17:29:48.180Z,3.20
2019-05-07T17:33:54.194Z,3.58
2019-05-07T17:38:07.295Z,3.47
2019-05-07T17:42:11.858Z,2.60
2019-05-07T17:51:26.722Z,2.92
2019-05-07T17:55:35.609Z,3.08
2019-05-07T17:59:44.743Z,3.85
2019-05-07T18:03:52.033Z,3.20
2019-05-07T18:08:02.055Z,3.40
2019-05-07T18:12:09.282Z,4.35
2019-05-07T18:17:37.139Z,4.22
2019-05-07T18:20:57.250Z,3.93
2019-05-07T18:25:12.452Z,3.35
2019-05-07T18:29:22.477Z,3.20
2019-05-07T18:33:46.353Z,3.72
2019-05-07T18:38:02.482Z,3.98
2019-05-07T18:42:15.225Z,3.30
2019-05-07T18:46:28.726Z,3.75
2019-05-07T18:50:52.153Z,4.50
2019-05-07T19:00:46.009Z,3.83
2019-05-07T19:05:13.081Z,4.85
2019-05-07T19:09:26.706Z,4.65
2019-05-07T19:13:42.126Z,4.37
2019-05-07T19:18:12.648Z,4.92
2019-05-07T19:22:28.121Z,5.42
2019-05-07T19:26:48.169Z,3.98
2019-05-07T19:31:01.777Z,4.40
2019-05-07T19:35:28.700Z,5.40
2019-05-07T19:39:40.208Z,5.00
2019-05-07T19:44:21.441Z,4.45
2019-05-07T19:48:46.056Z,4.75
2019-05-07T19:53:07.217Z,5.22
2019-05-07T19:57:57.802Z,8.73
2019-05-07T20:02:27.981Z,5.15
2019-05-07T20:11:04.098Z,5.58
2019-05-07T20:15:19.359Z,5.65
2019-05-07T20:19:38.546Z,6.50
2019-05-07T20:23:48.359Z,5.92
2019-05-07T20:28:02.172Z,5.10
2019-05-07T20:32:13.081Z,6.50
2019-05-07T20:36:22.642Z,5.58
2019-05-07T20:40:32.505Z,5.72
2019-05-07T20:44:45.193Z,6.42
2019-05-07T20:49:02.507Z,5.50
2019-05-07T20:53:42.432Z,5.37
2019-05-07T20:58:00.123Z,5.17
2019-05-07T21:02:44.518Z,5.53
2019-05-07T21:07:04.608Z,6.20
2019-05-07T21:11:15.184Z,5.85
2019-05-07T21:15:25.123Z,5.70
2019-05-07T21:19:47.631Z,4.87
2019-05-07T21:23:57.813Z,6.17
2019-05-07T21:28:05.909Z,6.40
2019-05-07T21:32:23.107Z,6.22
2019-05-07T21:36:33.816Z,6.20
2019-05-07T21:40:43.742Z,4.62
2019-05-07T21:44:56.449Z,5.47
2019-05-07T21:49:12.736Z,5.08
2019-05-07T21:53:32.522Z,4.80
2019-05-07T21:58:16.701Z,6.30
2019-05-07T22:02:28.648Z,5.90
2019-05-07T22:06:45.590Z,4.87
2019-05-07T22:10:59.005Z,6.00
2019-05-07T22:15:17.329Z,5.90
2019-05-07T22:19:27.682Z,5.90
2019-05-07T22:23:35.128Z,6.05
2019-05-07T22:27:53.780Z,6.05
2019-05-07T22:32:36.023Z,6.45
2019-05-07T22:36:46.061Z,5.30
2019-05-07T22:41:05.329Z,7.05
2019-05-07T22:45:15.039Z,6.17
2019-05-07T22:49:25.290Z,8.98
2019-05-07T22:53:33.121Z,6.15
2019-05-07T22:57:53.949Z,5.83
2019-05-07T23:02:15.659Z,6.40
2019-05-07T23:06:25.980Z,7.60
2019-05-07T23:10:38.325Z,7.92
2019-05-07T23:14:53.692Z,6.90
2019-05-07T23:19:07.248Z,7.10
2019-05-07T23:23:23.270Z,7.53
2019-05-07T23:27:35.038Z,8.10
2019-05-07T23:32:05.396Z,6.85
2019-05-07T23:36:18.077Z,6.37
2019-05-07T23:40:47.453Z,8.50
2019-05-07T23:44:57.522Z,7.03
2019-05-07T23:49:07.475Z,7.05
2019-05-07T23:53:17.063Z,9.48
2019-05-07T23:57:26.184Z,6.55
